Airfield :
LOGIN :

Register | Disclaimer

   EN    FR    IT 

 










Legend :    VFR   Marginal VFR   IFR   Intensive IFR   Very Intensive IFR
Visi :
Ceiling :
>= 8 km
>= 3000ft
5 to 8 km
1000 to 3000 ft
1500m to 5 km
500 to 1000 ft
800 to 1500m
200 to 500 ft
< 800m
< 200 ft
Symbols :   Thunderstorms  Fog  Heavy snow  Heavy precipitations  Wind > 20 kt
SIGMETs :     Misc.  Thunderstorms  Icing  Turbulence  Mountain Waves  Volcanic Ashes






- Airport Elevation : 423 ft
- IATA code : PIS


LFBI - Poitiers

CURRENT METAR :
  • 231030Z AUTO 22005KT 9999 FEW008/// BKN021/// BKN026/// ///TCU 15/15 Q1015 TEMPO 26015G25KT 1500 -RADZ BKN005 BKN015CB

EXPIRED METARs :
  • 231000Z AUTO 23004KT 9000 FEW027/// OVC078/// ///TCU 15/14 Q1014 TEMPO 1500 -RADZ BKN005 BKN015CB
  • 230930Z AUTO 24004KT 9999 -RA FEW007/// SCT027/// OVC086/// ///CB 15/14 Q1014 TEMPO 1500 -RADZ BKN005 BKN015CB
  • 230900Z AUTO 26006KT 9999 SCT004/// BKN013/// BKN022/// ///CB 15/14 Q1013 TEMPO 1500 -RADZ BKN005 BKN015CB
  • 230830Z AUTO 24006KT 6000 VV/// ///TCU 15/14 Q1013 TEMPO 1500 -RADZ BKN005 BKN015CB
  • 230800Z AUTO 21006KT 1100 1000 R21/1600N -RA BR VV/// 14/14 Q1013 TEMPO 4000 -RADZ BKN005 BKN015CB

TAF AMD TAF LFBI
Valid from the 23 at 07:00 until the 24 at 06:00 UTC


230751Z 2307/2406 20005KT 9999 BKN030
TEMPO 2307/2312 1500 -RADZ BKN002 BKN020TCU
PROB30
TEMPO 2308/2312 -TSRA BKN005 BKN015CB
BECMG 2312/2314 26012KT
PROB40
TEMPO 2312/2318 26015G25KT SHRA BKN020TCU
TEMPO 2322/2406 22015G25KT 3000 -RA BKN010



MET'MAP, your aeronautical weather chart ! - Copyright ORBIFLY December 2007 - Disclaimer

ORBIFLY MET'MAP TEAM :

Programming & Development : Alexandra Zaïnal
Concept & original design : Baudouin d'Aumeries
Assistance for programming : Marc-Olivier Méhu
Technical & hardware support : Manuel Goepfert

Contact : metmap@orbifly.com




SOURCES & CREDITS :

   NOAA